sensor_id;sensor_type;location;lat;lon;timestamp;P1;durP1;ratioP1;P2;durP2;ratioP2
28545;SDS011;15749;49.606;8.738;2022-09-02T00:02:31;1.60;;;1.50;;
28545;SDS011;15749;49.606;8.738;2022-09-02T00:07:09;1.50;;;1.40;;
28545;SDS011;15749;49.606;8.738;2022-09-02T00:10:47;1.60;;;1.50;;
28545;SDS011;15749;49.606;8.738;2022-09-02T00:23:48;1.40;;;1.30;;
28545;SDS011;15749;49.606;8.738;2022-09-02T00:27:54;3.47;;;1.50;;
28545;SDS011;15749;49.606;8.738;2022-09-02T00:30:23;2.30;;;1.67;;
28545;SDS011;15749;49.606;8.738;2022-09-02T00:32:55;1.97;;;1.73;;
28545;SDS011;15749;49.606;8.738;2022-09-02T00:35:24;1.90;;;1.53;;
28545;SDS011;15749;49.606;8.738;2022-09-02T00:37:53;2.37;;;1.80;;
28545;SDS011;15749;49.606;8.738;2022-09-02T00:40:24;1.60;;;1.50;;
28545;SDS011;15749;49.606;8.738;2022-09-02T00:42:55;7.93;;;1.70;;
28545;SDS011;15749;49.606;8.738;2022-09-02T00:45:25;1.70;;;1.60;;
28545;SDS011;15749;49.606;8.738;2022-09-02T00:47:55;2.07;;;1.77;;
28545;SDS011;15749;49.606;8.738;2022-09-02T00:50:26;2.20;;;1.60;;
28545;SDS011;15749;49.606;8.738;2022-09-02T00:52:59;1.97;;;1.77;;
28545;SDS011;15749;49.606;8.738;2022-09-02T00:55:37;2.07;;;1.60;;
28545;SDS011;15749;49.606;8.738;2022-09-02T00:58:13;2.10;;;1.63;;
28545;SDS011;15749;49.606;8.738;2022-09-02T01:00:47;1.83;;;1.73;;
28545;SDS011;15749;49.606;8.738;2022-09-02T01:03:24;1.80;;;1.70;;
28545;SDS011;15749;49.606;8.738;2022-09-02T01:05:57;1.60;;;1.50;;
28545;SDS011;15749;49.606;8.738;2022-09-02T01:08:31;1.57;;;1.43;;
28545;SDS011;15749;49.606;8.738;2022-09-02T01:11:04;2.63;;;1.70;;
28545;SDS011;15749;49.606;8.738;2022-09-02T01:13:35;2.67;;;2.00;;
28545;SDS011;15749;49.606;8.738;2022-09-02T01:16:09;1.70;;;1.60;;
28545;SDS011;15749;49.606;8.738;2022-09-02T01:18:47;1.60;;;1.50;;
28545;SDS011;15749;49.606;8.738;2022-09-02T01:21:21;2.63;;;1.80;;
28545;SDS011;15749;49.606;8.738;2022-09-02T01:23:52;1.60;;;1.50;;
28545;SDS011;15749;49.606;8.738;2022-09-02T01:26:22;1.70;;;1.50;;
28545;SDS011;15749;49.606;8.738;2022-09-02T01:28:51;1.80;;;1.70;;
28545;SDS011;15749;49.606;8.738;2022-09-02T01:31:21;1.60;;;1.50;;
28545;SDS011;15749;49.606;8.738;2022-09-02T01:33:50;1.53;;;1.43;;
28545;SDS011;15749;49.606;8.738;2022-09-02T01:36:21;2.20;;;1.57;;
28545;SDS011;15749;49.606;8.738;2022-09-02T01:38:50;1.60;;;1.50;;
28545;SDS011;15749;49.606;8.738;2022-09-02T01:41:21;1.70;;;1.60;;
28545;SDS011;15749;49.606;8.738;2022-09-02T01:43:51;1.40;;;1.30;;
28545;SDS011;15749;49.606;8.738;2022-09-02T01:46:20;2.13;;;1.73;;
28545;SDS011;15749;49.606;8.738;2022-09-02T01:48:51;2.10;;;1.60;;
28545;SDS011;15749;49.606;8.738;2022-09-02T01:51:21;1.83;;;1.73;;
28545;SDS011;15749;49.606;8.738;2022-09-02T01:53:52;1.70;;;1.60;;
28545;SDS011;15749;49.606;8.738;2022-09-02T01:56:21;1.80;;;1.70;;
28545;SDS011;15749;49.606;8.738;2022-09-02T01:58:51;3.77;;;2.00;;
28545;SDS011;15749;49.606;8.738;2022-09-02T02:01:21;1.60;;;1.50;;
28545;SDS011;15749;49.606;8.738;2022-09-02T02:03:51;1.60;;;1.50;;
28545;SDS011;15749;49.606;8.738;2022-09-02T02:06:23;2.17;;;1.67;;
28545;SDS011;15749;49.606;8.738;2022-09-02T02:08:55;2.00;;;1.80;;
28545;SDS011;15749;49.606;8.738;2022-09-02T02:11:26;1.40;;;1.30;;
28545;SDS011;15749;49.606;8.738;2022-09-02T02:13:58;1.50;;;1.40;;
28545;SDS011;15749;49.606;8.738;2022-09-02T02:16:27;1.77;;;1.67;;
28545;SDS011;15749;49.606;8.738;2022-09-02T02:18:57;2.13;;;1.50;;
28545;SDS011;15749;49.606;8.738;2022-09-02T02:21:27;1.60;;;1.40;;
28545;SDS011;15749;49.606;8.738;2022-09-02T02:23:58;1.67;;;1.43;;
28545;SDS011;15749;49.606;8.738;2022-09-02T02:26:28;1.63;;;1.50;;
28545;SDS011;15749;49.606;8.738;2022-09-02T02:28:59;2.90;;;1.50;;
28545;SDS011;15749;49.606;8.738;2022-09-02T02:31:28;1.37;;;1.20;;
28545;SDS011;15749;49.606;8.738;2022-09-02T02:33:58;2.10;;;1.57;;
28545;SDS011;15749;49.606;8.738;2022-09-02T02:36:28;2.40;;;1.43;;
28545;SDS011;15749;49.606;8.738;2022-09-02T02:38:59;2.37;;;1.60;;
28545;SDS011;15749;49.606;8.738;2022-09-02T02:41:29;1.80;;;1.20;;
28545;SDS011;15749;49.606;8.738;2022-09-02T02:43:59;1.60;;;1.50;;
28545;SDS011;15749;49.606;8.738;2022-09-02T02:46:29;1.50;;;1.40;;
28545;SDS011;15749;49.606;8.738;2022-09-02T02:48:59;2.13;;;1.50;;
28545;SDS011;15749;49.606;8.738;2022-09-02T02:51:30;1.53;;;1.43;;
28545;SDS011;15749;49.606;8.738;2022-09-02T02:54:01;1.57;;;1.47;;
28545;SDS011;15749;49.606;8.738;2022-09-02T02:56:32;1.50;;;1.40;;
28545;SDS011;15749;49.606;8.738;2022-09-02T02:59:02;1.20;;;1.10;;
28545;SDS011;15749;49.606;8.738;2022-09-02T03:01:33;2.87;;;1.53;;
28545;SDS011;15749;49.606;8.738;2022-09-02T03:04:04;1.97;;;1.50;;
28545;SDS011;15749;49.606;8.738;2022-09-02T03:06:34;2.20;;;1.60;;
28545;SDS011;15749;49.606;8.738;2022-09-02T03:09:05;1.63;;;1.53;;
28545;SDS011;15749;49.606;8.738;2022-09-02T03:11:36;3.00;;;1.43;;
28545;SDS011;15749;49.606;8.738;2022-09-02T03:14:06;1.63;;;1.53;;
28545;SDS011;15749;49.606;8.738;2022-09-02T03:16:36;1.50;;;1.37;;
28545;SDS011;15749;49.606;8.738;2022-09-02T03:19:06;1.47;;;1.33;;
28545;SDS011;15749;49.606;8.738;2022-09-02T03:21:35;1.83;;;1.60;;
28545;SDS011;15749;49.606;8.738;2022-09-02T03:24:09;1.50;;;1.40;;
28545;SDS011;15749;49.606;8.738;2022-09-02T03:26:40;2.07;;;1.67;;
28545;SDS011;15749;49.606;8.738;2022-09-02T03:29:11;1.40;;;1.30;;
28545;SDS011;15749;49.606;8.738;2022-09-02T03:31:42;1.53;;;1.40;;
28545;SDS011;15749;49.606;8.738;2022-09-02T03:34:12;1.33;;;1.23;;
28545;SDS011;15749;49.606;8.738;2022-09-02T03:36:42;1.43;;;1.20;;
28545;SDS011;15749;49.606;8.738;2022-09-02T03:39:14;1.37;;;1.17;;
28545;SDS011;15749;49.606;8.738;2022-09-02T03:41:46;2.03;;;1.60;;
28545;SDS011;15749;49.606;8.738;2022-09-02T03:44:16;1.63;;;1.40;;
28545;SDS011;15749;49.606;8.738;2022-09-02T03:46:46;2.00;;;1.40;;
28545;SDS011;15749;49.606;8.738;2022-09-02T03:49:16;1.20;;;1.10;;
28545;SDS011;15749;49.606;8.738;2022-09-02T03:51:45;1.67;;;1.33;;
28545;SDS011;15749;49.606;8.738;2022-09-02T03:54:17;1.27;;;1.17;;
28545;SDS011;15749;49.606;8.738;2022-09-02T03:56:46;1.33;;;1.23;;
28545;SDS011;15749;49.606;8.738;2022-09-02T03:59:17;1.37;;;1.27;;
28545;SDS011;15749;49.606;8.738;2022-09-02T04:01:47;1.87;;;1.30;;
28545;SDS011;15749;49.606;8.738;2022-09-02T04:04:18;2.03;;;1.60;;
28545;SDS011;15749;49.606;8.738;2022-09-02T04:06:51;1.53;;;1.23;;
28545;SDS011;15749;49.606;8.738;2022-09-02T04:09:22;1.30;;;1.20;;
28545;SDS011;15749;49.606;8.738;2022-09-02T04:11:52;2.70;;;1.27;;
28545;SDS011;15749;49.606;8.738;2022-09-02T04:14:22;1.60;;;1.30;;
28545;SDS011;15749;49.606;8.738;2022-09-02T04:16:52;1.63;;;1.20;;
28545;SDS011;15749;49.606;8.738;2022-09-02T04:19:22;1.63;;;1.20;;
28545;SDS011;15749;49.606;8.738;2022-09-02T04:21:52;1.40;;;1.30;;
28545;SDS011;15749;49.606;8.738;2022-09-02T04:24:23;1.40;;;1.30;;
28545;SDS011;15749;49.606;8.738;2022-09-02T04:26:52;1.77;;;1.30;;
28545;SDS011;15749;49.606;8.738;2022-09-02T04:29:30;1.73;;;1.30;;
28545;SDS011;15749;49.606;8.738;2022-09-02T04:32:00;1.93;;;1.10;;
28545;SDS011;15749;49.606;8.738;2022-09-02T04:34:30;1.53;;;1.23;;
28545;SDS011;15749;49.606;8.738;2022-09-02T04:37:02;1.30;;;1.20;;
28545;SDS011;15749;49.606;8.738;2022-09-02T04:39:37;1.33;;;1.20;;
28545;SDS011;15749;49.606;8.738;2022-09-02T04:42:08;2.80;;;1.23;;
28545;SDS011;15749;49.606;8.738;2022-09-02T04:44:40;1.20;;;1.10;;
28545;SDS011;15749;49.606;8.738;2022-09-02T04:47:16;1.60;;;1.20;;
28545;SDS011;15749;49.606;8.738;2022-09-02T04:49:46;1.37;;;1.20;;
28545;SDS011;15749;49.606;8.738;2022-09-02T04:52:22;1.73;;;1.37;;
28545;SDS011;15749;49.606;8.738;2022-09-02T04:54:57;2.27;;;1.27;;
28545;SDS011;15749;49.606;8.738;2022-09-02T04:57:33;1.47;;;1.20;;
28545;SDS011;15749;49.606;8.738;2022-09-02T05:00:07;1.50;;;1.40;;
28545;SDS011;15749;49.606;8.738;2022-09-02T05:02:39;1.20;;;1.10;;
28545;SDS011;15749;49.606;8.738;2022-09-02T05:05:11;1.30;;;1.20;;
28545;SDS011;15749;49.606;8.738;2022-09-02T05:07:41;1.23;;;1.10;;
28545;SDS011;15749;49.606;8.738;2022-09-02T05:10:12;1.40;;;1.30;;
28545;SDS011;15749;49.606;8.738;2022-09-02T05:12:45;1.40;;;1.30;;
28545;SDS011;15749;49.606;8.738;2022-09-02T05:15:15;1.90;;;1.53;;
28545;SDS011;15749;49.606;8.738;2022-09-02T05:17:47;1.23;;;1.13;;
28545;SDS011;15749;49.606;8.738;2022-09-02T05:20:16;1.40;;;1.30;;
28545;SDS011;15749;49.606;8.738;2022-09-02T05:22:52;1.50;;;1.40;;
28545;SDS011;15749;49.606;8.738;2022-09-02T05:25:29;1.30;;;1.00;;
28545;SDS011;15749;49.606;8.738;2022-09-02T05:28:10;1.53;;;1.13;;
28545;SDS011;15749;49.606;8.738;2022-09-02T05:30:44;1.20;;;1.10;;
28545;SDS011;15749;49.606;8.738;2022-09-02T05:33:16;1.40;;;1.30;;
28545;SDS011;15749;49.606;8.738;2022-09-02T05:35:52;1.40;;;1.30;;
28545;SDS011;15749;49.606;8.738;2022-09-02T05:38:25;1.87;;;1.20;;
28545;SDS011;15749;49.606;8.738;2022-09-02T05:40:57;3.70;;;1.10;;
28545;SDS011;15749;49.606;8.738;2022-09-02T05:43:35;1.77;;;1.20;;
28545;SDS011;15749;49.606;8.738;2022-09-02T05:46:06;2.10;;;1.27;;
28545;SDS011;15749;49.606;8.738;2022-09-02T05:48:42;1.30;;;1.20;;
28545;SDS011;15749;49.606;8.738;2022-09-02T05:51:31;1.63;;;1.33;;
28545;SDS011;15749;49.606;8.738;2022-09-02T05:54:11;1.73;;;1.30;;
28545;SDS011;15749;49.606;8.738;2022-09-02T05:56:47;1.20;;;1.10;;
28545;SDS011;15749;49.606;8.738;2022-09-02T05:59:26;1.43;;;1.13;;
28545;SDS011;15749;49.606;8.738;2022-09-02T06:02:02;1.20;;;1.10;;
28545;SDS011;15749;49.606;8.738;2022-09-02T06:04:36;2.90;;;1.40;;
28545;SDS011;15749;49.606;8.738;2022-09-02T06:07:14;1.27;;;1.17;;
28545;SDS011;15749;49.606;8.738;2022-09-02T06:09:51;1.30;;;1.10;;
28545;SDS011;15749;49.606;8.738;2022-09-02T06:12:30;1.63;;;1.27;;
28545;SDS011;15749;49.606;8.738;2022-09-02T06:15:12;1.43;;;1.10;;
28545;SDS011;15749;49.606;8.738;2022-09-02T06:17:45;1.73;;;1.20;;
28545;SDS011;15749;49.606;8.738;2022-09-02T06:20:16;1.63;;;1.10;;
28545;SDS011;15749;49.606;8.738;2022-09-02T06:22:47;1.20;;;1.10;;
28545;SDS011;15749;49.606;8.738;2022-09-02T06:25:22;0.80;;;0.80;;
28545;SDS011;15749;49.606;8.738;2022-09-02T06:27:55;2.10;;;1.10;;
28545;SDS011;15749;49.606;8.738;2022-09-02T06:30:34;1.57;;;1.00;;
28545;SDS011;15749;49.606;8.738;2022-09-02T06:33:06;1.43;;;1.07;;
28545;SDS011;15749;49.606;8.738;2022-09-02T06:35:42;1.77;;;1.50;;
28545;SDS011;15749;49.606;8.738;2022-09-02T06:38:16;1.10;;;1.00;;
28545;SDS011;15749;49.606;8.738;2022-09-02T06:40:52;3.63;;;1.20;;
28545;SDS011;15749;49.606;8.738;2022-09-02T06:43:32;1.60;;;1.00;;
28545;SDS011;15749;49.606;8.738;2022-09-02T06:46:36;1.30;;;1.10;;
28545;SDS011;15749;49.606;8.738;2022-09-02T06:49:14;1.20;;;1.00;;
28545;SDS011;15749;49.606;8.738;2022-09-02T06:51:47;1.00;;;0.90;;
28545;SDS011;15749;49.606;8.738;2022-09-02T06:57:34;1.60;;;1.00;;
28545;SDS011;15749;49.606;8.738;2022-09-02T07:00:10;1.40;;;1.10;;
28545;SDS011;15749;49.606;8.738;2022-09-02T07:02:43;2.23;;;1.03;;
28545;SDS011;15749;49.606;8.738;2022-09-02T07:14:57;3.43;;;1.13;;
28545;SDS011;15749;49.606;8.738;2022-09-02T07:17:35;2.70;;;0.97;;
28545;SDS011;15749;49.606;8.738;2022-09-02T07:20:11;1.60;;;1.13;;
28545;SDS011;15749;49.606;8.738;2022-09-02T07:22:50;1.17;;;0.97;;
28545;SDS011;15749;49.606;8.738;2022-09-02T07:25:26;1.67;;;1.10;;
28545;SDS011;15749;49.606;8.738;2022-09-02T07:27:56;1.77;;;0.90;;
28545;SDS011;15749;49.606;8.738;2022-09-02T07:30:30;2.27;;;0.97;;
28545;SDS011;15749;49.606;8.738;2022-09-02T07:33:19;2.23;;;1.00;;
28545;SDS011;15749;49.606;8.738;2022-09-02T07:35:51;1.40;;;1.10;;
28545;SDS011;15749;49.606;8.738;2022-09-02T07:38:22;1.90;;;1.17;;
28545;SDS011;15749;49.606;8.738;2022-09-02T07:40:54;3.07;;;1.00;;
28545;SDS011;15749;49.606;8.738;2022-09-02T07:43:36;2.43;;;1.20;;
28545;SDS011;15749;49.606;8.738;2022-09-02T07:46:10;0.97;;;0.87;;
28545;SDS011;15749;49.606;8.738;2022-09-02T07:48:53;1.10;;;0.83;;
28545;SDS011;15749;49.606;8.738;2022-09-02T07:51:24;1.40;;;0.90;;
28545;SDS011;15749;49.606;8.738;2022-09-02T07:54:05;1.10;;;0.90;;
28545;SDS011;15749;49.606;8.738;2022-09-02T07:56:43;1.60;;;1.00;;
28545;SDS011;15749;49.606;8.738;2022-09-02T07:59:15;3.57;;;1.10;;
28545;SDS011;15749;49.606;8.738;2022-09-02T08:01:47;2.13;;;0.93;;
28545;SDS011;15749;49.606;8.738;2022-09-02T08:04:19;1.08;;;0.90;;
28545;SDS011;15749;49.606;8.738;2022-09-02T08:06:55;1.05;;;0.90;;
28545;SDS011;15749;49.606;8.738;2022-09-02T08:09:25;1.13;;;0.80;;
28545;SDS011;15749;49.606;8.738;2022-09-02T08:11:59;1.50;;;1.00;;
28545;SDS011;15749;49.606;8.738;2022-09-02T08:14:43;1.30;;;0.80;;
28545;SDS011;15749;49.606;8.738;2022-09-02T08:17:15;2.55;;;0.90;;
28545;SDS011;15749;49.606;8.738;2022-09-02T08:19:49;1.67;;;1.02;;
28545;SDS011;15749;49.606;8.738;2022-09-02T08:22:20;2.28;;;1.05;;
28545;SDS011;15749;49.606;8.738;2022-09-02T08:24:54;1.42;;;0.90;;
28545;SDS011;15749;49.606;8.738;2022-09-02T08:27:38;2.33;;;1.00;;
28545;SDS011;15749;49.606;8.738;2022-09-02T08:30:27;1.02;;;0.93;;
28545;SDS011;15749;49.606;8.738;2022-09-02T08:33:00;0.95;;;0.80;;
28545;SDS011;15749;49.606;8.738;2022-09-02T08:35:33;3.45;;;1.23;;
28545;SDS011;15749;49.606;8.738;2022-09-02T08:38:11;1.42;;;0.90;;
28545;SDS011;15749;49.606;8.738;2022-09-02T08:40:48;2.20;;;0.93;;
28545;SDS011;15749;49.606;8.738;2022-09-02T08:43:25;2.17;;;0.90;;
28545;SDS011;15749;49.606;8.738;2022-09-02T08:46:05;1.63;;;0.90;;
28545;SDS011;15749;49.606;8.738;2022-09-02T08:48:46;0.73;;;0.68;;
28545;SDS011;15749;49.606;8.738;2022-09-02T08:51:25;1.30;;;0.80;;
28545;SDS011;15749;49.606;8.738;2022-09-02T08:54:06;4.35;;;1.10;;
28545;SDS011;15749;49.606;8.738;2022-09-02T08:56:41;1.05;;;0.90;;
28545;SDS011;15749;49.606;8.738;2022-09-02T08:59:11;1.80;;;0.90;;
28545;SDS011;15749;49.606;8.738;2022-09-02T09:01:44;0.93;;;0.68;;
28545;SDS011;15749;49.606;8.738;2022-09-02T09:04:20;1.40;;;0.88;;
28545;SDS011;15749;49.606;8.738;2022-09-02T09:07:09;1.80;;;0.85;;
28545;SDS011;15749;49.606;8.738;2022-09-02T09:09:52;1.08;;;0.80;;
28545;SDS011;15749;49.606;8.738;2022-09-02T09:12:48;0.95;;;0.80;;
28545;SDS011;15749;49.606;8.738;2022-09-02T09:15:36;0.70;;;0.68;;
28545;SDS011;15749;49.606;8.738;2022-09-02T09:18:17;1.17;;;0.70;;
28545;SDS011;15749;49.606;8.738;2022-09-02T09:21:03;1.13;;;0.68;;
28545;SDS011;15749;49.606;8.738;2022-09-02T09:23:42;0.98;;;0.80;;
28545;SDS011;15749;49.606;8.738;2022-09-02T09:26:16;2.72;;;0.75;;
28545;SDS011;15749;49.606;8.738;2022-09-02T09:28:49;2.30;;;0.82;;
28545;SDS011;15749;49.606;8.738;2022-09-02T09:31:25;2.17;;;0.60;;
28545;SDS011;15749;49.606;8.738;2022-09-02T09:34:02;0.68;;;0.60;;
28545;SDS011;15749;49.606;8.738;2022-09-02T09:36:44;2.17;;;0.82;;
28545;SDS011;15749;49.606;8.738;2022-09-02T09:39:22;0.65;;;0.60;;
28545;SDS011;15749;49.606;8.738;2022-09-02T09:41:56;0.85;;;0.75;;
28545;SDS011;15749;49.606;8.738;2022-09-02T09:44:38;1.70;;;0.73;;
28545;SDS011;15749;49.606;8.738;2022-09-02T09:47:14;1.02;;;0.63;;
28545;SDS011;15749;49.606;8.738;2022-09-02T09:49:51;0.77;;;0.60;;
28545;SDS011;15749;49.606;8.738;2022-09-02T09:52:37;0.88;;;0.73;;
28545;SDS011;15749;49.606;8.738;2022-09-02T09:55:12;1.30;;;0.70;;
28545;SDS011;15749;49.606;8.738;2022-09-02T09:57:55;2.70;;;0.60;;
28545;SDS011;15749;49.606;8.738;2022-09-02T10:00:37;1.27;;;0.70;;
28545;SDS011;15749;49.606;8.738;2022-09-02T10:03:17;2.65;;;0.60;;
28545;SDS011;15749;49.606;8.738;2022-09-02T10:05:54;2.30;;;0.90;;
28545;SDS011;15749;49.606;8.738;2022-09-02T10:08:27;1.13;;;0.70;;
28545;SDS011;15749;49.606;8.738;2022-09-02T10:11:00;1.90;;;0.80;;
28545;SDS011;15749;49.606;8.738;2022-09-02T10:13:34;1.35;;;0.85;;
28545;SDS011;15749;49.606;8.738;2022-09-02T10:16:14;1.00;;;0.70;;
28545;SDS011;15749;49.606;8.738;2022-09-02T10:18:58;1.65;;;0.70;;
28545;SDS011;15749;49.606;8.738;2022-09-02T10:21:53;0.60;;;0.50;;
28545;SDS011;15749;49.606;8.738;2022-09-02T10:24:50;1.10;;;0.60;;
28545;SDS011;15749;49.606;8.738;2022-09-02T10:27:39;2.53;;;0.82;;
28545;SDS011;15749;49.606;8.738;2022-09-02T10:30:21;0.80;;;0.75;;
28545;SDS011;15749;49.606;8.738;2022-09-02T10:33:00;1.02;;;0.70;;
28545;SDS011;15749;49.606;8.738;2022-09-02T10:35:48;1.08;;;0.80;;
28545;SDS011;15749;49.606;8.738;2022-09-02T10:38:33;1.58;;;0.88;;
28545;SDS011;15749;49.606;8.738;2022-09-02T10:41:13;0.70;;;0.55;;
28545;SDS011;15749;49.606;8.738;2022-09-02T10:44:02;2.15;;;1.00;;
28545;SDS011;15749;49.606;8.738;2022-09-02T10:47:01;1.63;;;0.70;;
28545;SDS011;15749;49.606;8.738;2022-09-02T10:49:44;0.70;;;0.60;;
28545;SDS011;15749;49.606;8.738;2022-09-02T10:55:43;0.98;;;0.60;;
28545;SDS011;15749;49.606;8.738;2022-09-02T10:58:35;1.30;;;0.70;;
28545;SDS011;15749;49.606;8.738;2022-09-02T11:01:15;1.17;;;0.70;;
28545;SDS011;15749;49.606;8.738;2022-09-02T11:03:53;0.95;;;0.63;;
28545;SDS011;15749;49.606;8.738;2022-09-02T11:06:34;0.60;;;0.50;;
28545;SDS011;15749;49.606;8.738;2022-09-02T11:09:29;1.52;;;0.70;;
28545;SDS011;15749;49.606;8.738;2022-09-02T11:12:06;0.85;;;0.75;;
28545;SDS011;15749;49.606;8.738;2022-09-02T11:14:46;0.80;;;0.60;;
28545;SDS011;15749;49.606;8.738;2022-09-02T11:17:29;2.08;;;0.70;;
28545;SDS011;15749;49.606;8.738;2022-09-02T11:20:08;0.95;;;0.60;;
28545;SDS011;15749;49.606;8.738;2022-09-02T11:22:48;1.25;;;0.70;;
28545;SDS011;15749;49.606;8.738;2022-09-02T11:25:28;2.88;;;0.70;;
28545;SDS011;15749;49.606;8.738;2022-09-02T11:28:07;1.05;;;0.77;;
28545;SDS011;15749;49.606;8.738;2022-09-02T11:30:54;1.65;;;0.75;;
28545;SDS011;15749;49.606;8.738;2022-09-02T11:33:41;1.23;;;0.60;;
28545;SDS011;15749;49.606;8.738;2022-09-02T11:36:20;1.05;;;0.60;;
28545;SDS011;15749;49.606;8.738;2022-09-02T11:38:55;1.98;;;0.90;;
28545;SDS011;15749;49.606;8.738;2022-09-02T11:41:38;2.15;;;0.90;;
28545;SDS011;15749;49.606;8.738;2022-09-02T11:44:34;1.77;;;0.70;;
28545;SDS011;15749;49.606;8.738;2022-09-02T11:47:55;2.45;;;0.73;;
28545;SDS011;15749;49.606;8.738;2022-09-02T11:54:05;0.88;;;0.70;;
28545;SDS011;15749;49.606;8.738;2022-09-02T11:56:42;1.60;;;0.52;;
28545;SDS011;15749;49.606;8.738;2022-09-02T11:59:19;0.63;;;0.52;;
28545;SDS011;15749;49.606;8.738;2022-09-02T12:01:53;1.25;;;0.68;;
28545;SDS011;15749;49.606;8.738;2022-09-02T12:04:24;1.08;;;0.60;;
28545;SDS011;15749;49.606;8.738;2022-09-02T12:07:23;0.90;;;0.60;;
28545;SDS011;15749;49.606;8.738;2022-09-02T12:10:01;0.60;;;0.60;;
28545;SDS011;15749;49.606;8.738;2022-09-02T12:15:35;1.40;;;0.70;;
28545;SDS011;15749;49.606;8.738;2022-09-02T12:18:11;0.57;;;0.50;;
28545;SDS011;15749;49.606;8.738;2022-09-02T12:21:05;0.60;;;0.50;;
28545;SDS011;15749;49.606;8.738;2022-09-02T12:29:53;1.15;;;0.60;;
28545;SDS011;15749;49.606;8.738;2022-09-02T12:35:50;1.10;;;0.80;;
28545;SDS011;15749;49.606;8.738;2022-09-02T12:41:16;0.98;;;0.80;;
28545;SDS011;15749;49.606;8.738;2022-09-02T12:47:05;0.98;;;0.57;;
28545;SDS011;15749;49.606;8.738;2022-09-02T12:49:41;2.20;;;0.77;;
28545;SDS011;15749;49.606;8.738;2022-09-02T12:55:20;2.25;;;0.70;;
28545;SDS011;15749;49.606;8.738;2022-09-02T12:58:05;0.70;;;0.50;;
28545;SDS011;15749;49.606;8.738;2022-09-02T13:00:42;0.93;;;0.68;;
28545;SDS011;15749;49.606;8.738;2022-09-02T13:10:36;0.80;;;0.50;;
28545;SDS011;15749;49.606;8.738;2022-09-02T13:16:49;0.73;;;0.50;;
28545;SDS011;15749;49.606;8.738;2022-09-02T13:23:38;0.60;;;0.52;;
28545;SDS011;15749;49.606;8.738;2022-09-02T13:30:19;1.20;;;0.63;;
28545;SDS011;15749;49.606;8.738;2022-09-02T13:32:54;1.10;;;0.80;;
28545;SDS011;15749;49.606;8.738;2022-09-02T13:35:29;1.05;;;0.50;;
28545;SDS011;15749;49.606;8.738;2022-09-02T13:38:07;1.02;;;0.60;;
28545;SDS011;15749;49.606;8.738;2022-09-02T13:40:39;2.00;;;0.70;;
28545;SDS011;15749;49.606;8.738;2022-09-02T13:43:15;6.22;;;0.50;;
28545;SDS011;15749;49.606;8.738;2022-09-02T13:45:50;1.33;;;0.65;;
28545;SDS011;15749;49.606;8.738;2022-09-02T13:48:22;1.60;;;0.60;;
28545;SDS011;15749;49.606;8.738;2022-09-02T13:51:01;2.22;;;1.10;;
28545;SDS011;15749;49.606;8.738;2022-09-02T13:53:44;3.40;;;0.60;;
28545;SDS011;15749;49.606;8.738;2022-09-02T13:56:37;1.00;;;0.60;;
28545;SDS011;15749;49.606;8.738;2022-09-02T13:59:07;0.88;;;0.50;;
28545;SDS011;15749;49.606;8.738;2022-09-02T14:01:40;0.82;;;0.55;;
28545;SDS011;15749;49.606;8.738;2022-09-02T14:04:14;1.63;;;0.60;;
28545;SDS011;15749;49.606;8.738;2022-09-02T14:06:46;0.98;;;0.65;;
28545;SDS011;15749;49.606;8.738;2022-09-02T14:09:20;3.28;;;0.70;;
28545;SDS011;15749;49.606;8.738;2022-09-02T14:11:59;3.13;;;0.80;;
28545;SDS011;15749;49.606;8.738;2022-09-02T14:14:34;0.70;;;0.60;;
28545;SDS011;15749;49.606;8.738;2022-09-02T14:17:17;1.33;;;0.52;;
28545;SDS011;15749;49.606;8.738;2022-09-02T14:22:55;0.70;;;0.60;;
28545;SDS011;15749;49.606;8.738;2022-09-02T14:25:28;1.45;;;0.57;;
28545;SDS011;15749;49.606;8.738;2022-09-02T14:28:03;1.80;;;0.65;;
28545;SDS011;15749;49.606;8.738;2022-09-02T14:30:52;4.43;;;0.60;;
28545;SDS011;15749;49.606;8.738;2022-09-02T14:33:37;1.40;;;0.60;;
28545;SDS011;15749;49.606;8.738;2022-09-02T14:36:12;0.50;;;0.50;;
28545;SDS011;15749;49.606;8.738;2022-09-02T14:39:10;1.17;;;0.60;;
28545;SDS011;15749;49.606;8.738;2022-09-02T14:41:43;1.02;;;0.70;;
28545;SDS011;15749;49.606;8.738;2022-09-02T14:44:16;0.80;;;0.65;;
28545;SDS011;15749;49.606;8.738;2022-09-02T14:46:51;0.47;;;0.47;;
28545;SDS011;15749;49.606;8.738;2022-09-02T14:49:26;0.98;;;0.75;;
28545;SDS011;15749;49.606;8.738;2022-09-02T14:51:59;0.50;;;0.50;;
28545;SDS011;15749;49.606;8.738;2022-09-02T14:54:38;0.65;;;0.60;;
28545;SDS011;15749;49.606;8.738;2022-09-02T14:57:18;1.60;;;0.47;;
28545;SDS011;15749;49.606;8.738;2022-09-02T14:59:51;1.58;;;0.75;;
28545;SDS011;15749;49.606;8.738;2022-09-02T15:02:21;0.85;;;0.60;;
28545;SDS011;15749;49.606;8.738;2022-09-02T15:04:58;2.05;;;0.60;;
28545;SDS011;15749;49.606;8.738;2022-09-02T15:07:30;0.77;;;0.70;;
28545;SDS011;15749;49.606;8.738;2022-09-02T15:09:59;0.50;;;0.50;;
28545;SDS011;15749;49.606;8.738;2022-09-02T15:12:31;0.82;;;0.65;;
28545;SDS011;15749;49.606;8.738;2022-09-02T15:15:03;0.80;;;0.60;;
28545;SDS011;15749;49.606;8.738;2022-09-02T15:17:33;1.30;;;0.70;;
28545;SDS011;15749;49.606;8.738;2022-09-02T15:20:05;1.15;;;0.70;;
28545;SDS011;15749;49.606;8.738;2022-09-02T15:22:37;1.45;;;0.60;;
28545;SDS011;15749;49.606;8.738;2022-09-02T15:25:07;2.50;;;0.60;;
28545;SDS011;15749;49.606;8.738;2022-09-02T15:27:37;1.02;;;0.60;;
28545;SDS011;15749;49.606;8.738;2022-09-02T15:30:07;1.98;;;0.68;;
28545;SDS011;15749;49.606;8.738;2022-09-02T15:32:38;1.00;;;0.65;;
28545;SDS011;15749;49.606;8.738;2022-09-02T15:35:09;1.02;;;0.55;;
28545;SDS011;15749;49.606;8.738;2022-09-02T15:37:39;0.60;;;0.50;;
28545;SDS011;15749;49.606;8.738;2022-09-02T15:40:10;2.10;;;0.65;;
28545;SDS011;15749;49.606;8.738;2022-09-02T15:42:43;1.35;;;0.70;;
28545;SDS011;15749;49.606;8.738;2022-09-02T15:45:31;1.30;;;0.65;;
28545;SDS011;15749;49.606;8.738;2022-09-02T15:48:01;2.85;;;0.70;;
28545;SDS011;15749;49.606;8.738;2022-09-02T15:50:33;0.80;;;0.60;;
28545;SDS011;15749;49.606;8.738;2022-09-02T15:53:03;0.95;;;0.70;;
28545;SDS011;15749;49.606;8.738;2022-09-02T15:55:32;1.70;;;0.68;;
28545;SDS011;15749;49.606;8.738;2022-09-02T15:58:02;0.55;;;0.47;;
28545;SDS011;15749;49.606;8.738;2022-09-02T16:00:31;0.68;;;0.50;;
28545;SDS011;15749;49.606;8.738;2022-09-02T16:03:03;1.15;;;0.45;;
28545;SDS011;15749;49.606;8.738;2022-09-02T16:05:34;1.20;;;0.80;;
28545;SDS011;15749;49.606;8.738;2022-09-02T16:08:03;2.85;;;0.60;;
28545;SDS011;15749;49.606;8.738;2022-09-02T16:10:34;1.45;;;0.60;;
28545;SDS011;15749;49.606;8.738;2022-09-02T16:13:04;1.15;;;0.60;;
28545;SDS011;15749;49.606;8.738;2022-09-02T16:15:34;1.05;;;0.55;;
28545;SDS011;15749;49.606;8.738;2022-09-02T16:18:03;0.80;;;0.40;;
28545;SDS011;15749;49.606;8.738;2022-09-02T16:20:36;0.60;;;0.50;;
28545;SDS011;15749;49.606;8.738;2022-09-02T16:23:18;1.05;;;0.50;;
28545;SDS011;15749;49.606;8.738;2022-09-02T16:26:06;0.40;;;0.40;;
28545;SDS011;15749;49.606;8.738;2022-09-02T16:28:38;1.25;;;0.60;;
28545;SDS011;15749;49.606;8.738;2022-09-02T16:31:10;1.23;;;0.73;;
28545;SDS011;15749;49.606;8.738;2022-09-02T16:33:43;1.13;;;0.50;;
28545;SDS011;15749;49.606;8.738;2022-09-02T16:36:22;4.43;;;0.50;;
28545;SDS011;15749;49.606;8.738;2022-09-02T16:39:00;1.23;;;0.50;;
28545;SDS011;15749;49.606;8.738;2022-09-02T16:41:32;2.67;;;0.50;;
28545;SDS011;15749;49.606;8.738;2022-09-02T16:44:04;2.55;;;0.70;;
28545;SDS011;15749;49.606;8.738;2022-09-02T16:46:35;0.60;;;0.60;;
28545;SDS011;15749;49.606;8.738;2022-09-02T16:49:08;0.70;;;0.60;;
28545;SDS011;15749;49.606;8.738;2022-09-02T16:51:40;0.63;;;0.60;;
28545;SDS011;15749;49.606;8.738;2022-09-02T16:54:10;1.08;;;0.60;;
28545;SDS011;15749;49.606;8.738;2022-09-02T16:56:47;0.60;;;0.50;;